Pagrindinis puslapis
METAR-TAF:

METAR-TAF

Oro uostai :

Las Vegas, Naujoji Meksika, Jungtinės Amerikos Valstijos

platuma: 35-39-15N, ilguma: 105-08-33W, Aukštis: 2096 m

METAR: trūkstamas

Laikas: 05:58 (11:58 UTC)

Prognozė

Ataskaita buvo paskelbta 38 minutes, ne 11:20 UTC
Prognozė galioja nuo 28 metu 12 UTC su 29 metu 12 UTC
Vėjas 7 kt iš Šiaurės
Matomumas: 10 km
Giedras dangus
Nuo 28 metu 1700 UTC
Vėjas 8 kt iš Pietų/Pietryčių
Matomumas: 10 km
Giedras dangus
Nuo 29 metu 0200 UTC
Vėjas 6 kt iš Šiaurės/Šiaurės Rytų
Matomumas: 10 km
Giedras dangus
Nuo 29 metu 0800 UTC
Vėjas 7 kt iš Pietų/Pietryčių
Matomumas: 10 km
Giedras dangus

TAF: KLVS 281120Z 2812/2912 35007KT P6SM SKC FM281700 16008KT P6SM SKC FM290200 02006KT P6SM SKC FM290800 16007KT P6SM SKC AMD NOT SKED

Orai ataskaitas ir orų prognozės (METAR, TAF).

turimą stotys yra geltonos ir raudonos taškus žemėlapyje.

Perkelti pele per norėdami pamatyti stoties vardą.

Tada spustelėkite, norėdami matyti oro stebėjimo ir prognozės.

Norėdami pakeisti žemėlapį: spustelėkite ant žalios mygtukų su juodo kryžiaus žemyn,; žalią mygtuką su brūkšneliu, jei norite nutolinti; arba žalių rodyklių gretimoms žemėlapius.


METAR-TAF: